sensor_id;sensor_type;location;lat;lon;timestamp;pressure;altitude;pressure_sealevel;temperature;humidity
39555;BME280;25231;48.746;9.234;2022-07-23T00:02:06;96747.44;;;24.55;54.52
39555;BME280;25231;48.746;9.234;2022-07-23T00:04:32;96743.66;;;24.47;54.43
39555;BME280;25231;48.746;9.234;2022-07-23T00:06:57;96737.53;;;24.38;54.43
39555;BME280;25231;48.746;9.234;2022-07-23T00:09:23;96740.66;;;24.31;54.87
39555;BME280;25231;48.746;9.234;2022-07-23T00:11:48;96736.59;;;24.34;54.99
39555;BME280;25231;48.746;9.234;2022-07-23T00:14:14;96735.78;;;24.25;54.37
39555;BME280;25231;48.746;9.234;2022-07-23T00:16:39;96717.38;;;24.23;53.79
39555;BME280;25231;48.746;9.234;2022-07-23T00:19:04;96707.25;;;24.20;52.82
39555;BME280;25231;48.746;9.234;2022-07-23T00:21:30;96706.50;;;24.28;53.04
39555;BME280;25231;48.746;9.234;2022-07-23T00:23:55;96707.41;;;24.32;52.27
39555;BME280;25231;48.746;9.234;2022-07-23T00:26:20;96714.69;;;24.23;52.42
39555;BME280;25231;48.746;9.234;2022-07-23T00:28:46;96714.84;;;24.27;51.99
39555;BME280;25231;48.746;9.234;2022-07-23T00:31:11;96729.81;;;24.28;52.46
39555;BME280;25231;48.746;9.234;2022-07-23T00:33:36;96718.16;;;24.24;52.75
39555;BME280;25231;48.746;9.234;2022-07-23T00:36:02;96706.16;;;24.13;52.43
39555;BME280;25231;48.746;9.234;2022-07-23T00:38:28;96714.69;;;24.23;52.57
39555;BME280;25231;48.746;9.234;2022-07-23T00:40:53;96711.19;;;24.06;55.07
39555;BME280;25231;48.746;9.234;2022-07-23T00:43:20;96704.09;;;24.10;55.19
39555;BME280;25231;48.746;9.234;2022-07-23T00:45:47;96687.53;;;23.99;56.20
39555;BME280;25231;48.746;9.234;2022-07-23T00:48:12;96696.84;;;23.93;56.06
39555;BME280;25231;48.746;9.234;2022-07-23T00:50:37;96669.56;;;23.91;56.11
39555;BME280;25231;48.746;9.234;2022-07-23T00:53:04;96658.88;;;23.74;56.22
39555;BME280;25231;48.746;9.234;2022-07-23T00:55:29;96642.50;;;23.67;56.53
39555;BME280;25231;48.746;9.234;2022-07-23T00:57:55;96681.38;;;23.73;55.77
39555;BME280;25231;48.746;9.234;2022-07-23T01:00:21;96692.72;;;23.70;56.14
39555;BME280;25231;48.746;9.234;2022-07-23T01:02:46;96690.97;;;23.65;55.79
39555;BME280;25231;48.746;9.234;2022-07-23T01:05:12;96703.75;;;23.68;56.08
39555;BME280;25231;48.746;9.234;2022-07-23T01:07:38;96696.78;;;23.58;56.44
39555;BME280;25231;48.746;9.234;2022-07-23T01:10:04;96681.97;;;23.52;56.77
39555;BME280;25231;48.746;9.234;2022-07-23T01:12:30;96677.09;;;23.54;56.11
39555;BME280;25231;48.746;9.234;2022-07-23T01:14:59;96689.88;;;23.66;56.12
39555;BME280;25231;48.746;9.234;2022-07-23T01:17:25;96691.31;;;23.72;55.47
39555;BME280;25231;48.746;9.234;2022-07-23T01:19:51;96672.53;;;23.63;55.65
39555;BME280;25231;48.746;9.234;2022-07-23T01:22:18;96671.00;;;23.71;55.33
39555;BME280;25231;48.746;9.234;2022-07-23T01:24:44;96668.13;;;23.50;56.00
39555;BME280;25231;48.746;9.234;2022-07-23T01:27:10;96663.56;;;23.51;55.94
39555;BME280;25231;48.746;9.234;2022-07-23T01:29:35;96656.16;;;23.48;55.81
39555;BME280;25231;48.746;9.234;2022-07-23T01:32:00;96669.84;;;23.46;55.87
39555;BME280;25231;48.746;9.234;2022-07-23T01:34:26;96671.41;;;23.47;55.67
39555;BME280;25231;48.746;9.234;2022-07-23T01:36:51;96644.31;;;23.40;55.79
39555;BME280;25231;48.746;9.234;2022-07-23T01:39:16;96633.28;;;23.33;55.71
39555;BME280;25231;48.746;9.234;2022-07-23T01:41:42;96598.50;;;23.42;56.19
39555;BME280;25231;48.746;9.234;2022-07-23T01:44:07;96609.72;;;23.52;55.64
39555;BME280;25231;48.746;9.234;2022-07-23T01:46:33;96640.38;;;23.38;57.14
39555;BME280;25231;48.746;9.234;2022-07-23T01:48:58;96643.03;;;23.38;56.71
39555;BME280;25231;48.746;9.234;2022-07-23T01:51:23;96641.13;;;23.30;57.40
39555;BME280;25231;48.746;9.234;2022-07-23T01:53:49;96656.22;;;23.17;57.50
39555;BME280;25231;48.746;9.234;2022-07-23T01:56:14;96657.31;;;23.16;57.46
39555;BME280;25231;48.746;9.234;2022-07-23T01:58:40;96671.97;;;23.27;57.55
39555;BME280;25231;48.746;9.234;2022-07-23T02:01:05;96666.47;;;23.24;57.68
39555;BME280;25231;48.746;9.234;2022-07-23T02:03:31;96659.19;;;23.15;57.88
39555;BME280;25231;48.746;9.234;2022-07-23T02:05:56;96665.78;;;23.09;57.66
39555;BME280;25231;48.746;9.234;2022-07-23T02:08:22;96652.53;;;23.04;58.12
39555;BME280;25231;48.746;9.234;2022-07-23T02:10:47;96650.31;;;22.98;58.57
39555;BME280;25231;48.746;9.234;2022-07-23T02:13:14;96647.28;;;22.91;58.99
39555;BME280;25231;48.746;9.234;2022-07-23T02:15:39;96658.75;;;22.83;59.17
39555;BME280;25231;48.746;9.234;2022-07-23T02:18:04;96672.41;;;22.81;59.02
39555;BME280;25231;48.746;9.234;2022-07-23T02:20:30;96679.66;;;22.80;59.60
39555;BME280;25231;48.746;9.234;2022-07-23T02:22:55;96684.53;;;22.78;59.87
39555;BME280;25231;48.746;9.234;2022-07-23T02:25:20;96686.31;;;22.69;60.48
39555;BME280;25231;48.746;9.234;2022-07-23T02:27:46;96705.56;;;22.58;61.24
39555;BME280;25231;48.746;9.234;2022-07-23T02:30:11;96708.50;;;22.48;61.82
39555;BME280;25231;48.746;9.234;2022-07-23T02:32:37;96709.38;;;22.57;61.97
39555;BME280;25231;48.746;9.234;2022-07-23T02:35:05;96720.66;;;22.54;61.94
39555;BME280;25231;48.746;9.234;2022-07-23T02:37:31;96724.34;;;22.44;62.84
39555;BME280;25231;48.746;9.234;2022-07-23T02:39:56;96734.13;;;22.49;62.61
39555;BME280;25231;48.746;9.234;2022-07-23T02:42:21;96740.31;;;22.58;62.44
39555;BME280;25231;48.746;9.234;2022-07-23T02:44:49;96737.22;;;22.20;63.83
39555;BME280;25231;48.746;9.234;2022-07-23T02:47:14;96749.00;;;22.41;63.08
39555;BME280;25231;48.746;9.234;2022-07-23T02:49:40;96754.56;;;22.31;63.27
39555;BME280;25231;48.746;9.234;2022-07-23T02:52:05;96758.03;;;22.31;63.38
39555;BME280;25231;48.746;9.234;2022-07-23T02:54:30;96769.81;;;22.30;63.31
39555;BME280;25231;48.746;9.234;2022-07-23T02:56:56;96762.56;;;22.45;63.05
39555;BME280;25231;48.746;9.234;2022-07-23T02:59:21;96757.53;;;22.29;63.04
39555;BME280;25231;48.746;9.234;2022-07-23T03:01:47;96755.06;;;22.33;62.88
39555;BME280;25231;48.746;9.234;2022-07-23T03:04:13;96759.09;;;22.44;62.74
39555;BME280;25231;48.746;9.234;2022-07-23T03:06:38;96764.13;;;22.46;62.49
39555;BME280;25231;48.746;9.234;2022-07-23T03:09:04;96764.00;;;22.51;62.55
39555;BME280;25231;48.746;9.234;2022-07-23T03:11:30;96762.56;;;22.45;62.24
39555;BME280;25231;48.746;9.234;2022-07-23T03:13:55;96767.56;;;22.46;62.18
39555;BME280;25231;48.746;9.234;2022-07-23T03:16:20;96765.28;;;22.53;62.26
39555;BME280;25231;48.746;9.234;2022-07-23T03:18:46;96770.97;;;22.38;61.96
39555;BME280;25231;48.746;9.234;2022-07-23T03:21:11;96770.91;;;22.52;61.86
39555;BME280;25231;48.746;9.234;2022-07-23T03:23:36;96773.66;;;22.60;61.45
39555;BME280;25231;48.746;9.234;2022-07-23T03:26:02;96762.97;;;22.60;61.18
39555;BME280;25231;48.746;9.234;2022-07-23T03:28:27;96763.41;;;22.54;62.22
39555;BME280;25231;48.746;9.234;2022-07-23T03:30:53;96757.38;;;22.48;62.34
39555;BME280;25231;48.746;9.234;2022-07-23T03:33:19;96746.81;;;22.43;62.67
39555;BME280;25231;48.746;9.234;2022-07-23T03:35:46;96747.31;;;22.45;62.71
39555;BME280;25231;48.746;9.234;2022-07-23T03:38:12;96740.09;;;22.46;62.49
39555;BME280;25231;48.746;9.234;2022-07-23T03:40:38;96744.31;;;22.24;63.22
39555;BME280;25231;48.746;9.234;2022-07-23T03:43:03;96747.78;;;22.25;63.58
39555;BME280;25231;48.746;9.234;2022-07-23T03:45:31;96748.88;;;22.46;62.40
39555;BME280;25231;48.746;9.234;2022-07-23T03:47:56;96754.56;;;22.31;63.01
39555;BME280;25231;48.746;9.234;2022-07-23T03:50:22;96755.91;;;22.42;62.95
39555;BME280;25231;48.746;9.234;2022-07-23T03:52:47;96751.06;;;22.22;64.18
39555;BME280;25231;48.746;9.234;2022-07-23T03:55:13;96754.09;;;22.29;63.61
39555;BME280;25231;48.746;9.234;2022-07-23T03:57:38;96752.44;;;22.19;64.24
39555;BME280;25231;48.746;9.234;2022-07-23T04:00:05;96760.59;;;22.01;64.76
39555;BME280;25231;48.746;9.234;2022-07-23T04:02:31;96752.97;;;22.08;64.63
39555;BME280;25231;48.746;9.234;2022-07-23T04:04:57;96768.38;;;22.11;64.89
39555;BME280;25231;48.746;9.234;2022-07-23T04:07:22;96758.16;;;22.26;64.31
39555;BME280;25231;48.746;9.234;2022-07-23T04:09:48;96768.03;;;22.26;64.47
39555;BME280;25231;48.746;9.234;2022-07-23T04:12:14;96769.47;;;22.10;64.95
39555;BME280;25231;48.746;9.234;2022-07-23T04:14:39;96775.75;;;22.27;64.44
39555;BME280;25231;48.746;9.234;2022-07-23T04:17:05;96776.28;;;22.16;64.58
39555;BME280;25231;48.746;9.234;2022-07-23T04:19:30;96766.66;;;22.28;64.03
39555;BME280;25231;48.746;9.234;2022-07-23T04:21:56;96771.34;;;22.23;64.30
39555;BME280;25231;48.746;9.234;2022-07-23T04:24:22;96778.84;;;22.21;64.89
39555;BME280;25231;48.746;9.234;2022-07-23T04:26:47;96772.91;;;22.46;63.78
39555;BME280;25231;48.746;9.234;2022-07-23T04:29:12;96769.91;;;22.61;63.09
39555;BME280;25231;48.746;9.234;2022-07-23T04:31:38;96772.75;;;22.43;63.34
39555;BME280;25231;48.746;9.234;2022-07-23T04:34:03;96777.03;;;22.52;63.48
39555;BME280;25231;48.746;9.234;2022-07-23T04:36:28;96767.03;;;22.58;63.09
39555;BME280;25231;48.746;9.234;2022-07-23T04:38:54;96784.47;;;22.55;63.45
39555;BME280;25231;48.746;9.234;2022-07-23T04:41:20;96782.84;;;22.68;62.82
39555;BME280;25231;48.746;9.234;2022-07-23T04:43:45;96780.88;;;22.73;62.69
39555;BME280;25231;48.746;9.234;2022-07-23T04:46:11;96769.06;;;22.74;62.56
39555;BME280;25231;48.746;9.234;2022-07-23T04:48:36;96763.88;;;22.56;63.48
39555;BME280;25231;48.746;9.234;2022-07-23T04:51:02;96777.13;;;22.61;63.25
39555;BME280;25231;48.746;9.234;2022-07-23T04:53:28;96776.09;;;22.70;62.81
39555;BME280;25231;48.746;9.234;2022-07-23T04:55:53;96776.91;;;22.93;61.89
39555;BME280;25231;48.746;9.234;2022-07-23T04:58:19;96776.81;;;23.07;61.62
39555;BME280;25231;48.746;9.234;2022-07-23T05:00:44;96774.47;;;23.14;61.23
39555;BME280;25231;48.746;9.234;2022-07-23T05:03:09;96769.91;;;23.06;61.58
39555;BME280;25231;48.746;9.234;2022-07-23T05:05:35;96782.69;;;23.48;60.56
39555;BME280;25231;48.746;9.234;2022-07-23T05:08:01;96792.81;;;23.51;60.78
39555;BME280;25231;48.746;9.234;2022-07-23T05:10:27;96789.63;;;23.49;60.40
39555;BME280;25231;48.746;9.234;2022-07-23T05:12:52;96784.00;;;23.59;60.50
39555;BME280;25231;48.746;9.234;2022-07-23T05:15:17;96781.38;;;23.77;59.52
39555;BME280;25231;48.746;9.234;2022-07-23T05:17:43;96782.31;;;23.81;59.67
39555;BME280;25231;48.746;9.234;2022-07-23T05:20:08;96786.53;;;24.30;57.90
39555;BME280;25231;48.746;9.234;2022-07-23T05:22:34;96788.09;;;24.31;57.75
39555;BME280;25231;48.746;9.234;2022-07-23T05:24:59;96785.88;;;24.24;57.62
39555;BME280;25231;48.746;9.234;2022-07-23T05:27:24;96776.16;;;24.46;57.02
39555;BME280;25231;48.746;9.234;2022-07-23T05:29:50;96787.00;;;24.58;56.51
39555;BME280;25231;48.746;9.234;2022-07-23T05:32:15;96789.38;;;24.33;57.34
39555;BME280;25231;48.746;9.234;2022-07-23T05:34:40;96798.34;;;24.20;58.22
39555;BME280;25231;48.746;9.234;2022-07-23T05:37:06;96799.94;;;24.21;57.80
39555;BME280;25231;48.746;9.234;2022-07-23T05:39:31;96798.50;;;24.58;56.93
39555;BME280;25231;48.746;9.234;2022-07-23T05:41:57;96807.81;;;24.43;57.45
39555;BME280;25231;48.746;9.234;2022-07-23T05:44:22;96797.81;;;24.10;58.64
39555;BME280;25231;48.746;9.234;2022-07-23T05:46:47;96811.75;;;24.20;58.75
39555;BME280;25231;48.746;9.234;2022-07-23T05:49:13;96805.28;;;24.21;58.69
39555;BME280;25231;48.746;9.234;2022-07-23T05:51:38;96802.94;;;23.80;59.96
39555;BME280;25231;48.746;9.234;2022-07-23T05:54:03;96810.81;;;23.77;59.75
39555;BME280;25231;48.746;9.234;2022-07-23T05:56:29;96807.41;;;23.93;59.15
39555;BME280;25231;48.746;9.234;2022-07-23T05:58:54;96798.47;;;24.07;59.38
39555;BME280;25231;48.746;9.234;2022-07-23T06:01:19;96799.78;;;23.70;60.21
39555;BME280;25231;48.746;9.234;2022-07-23T06:03:45;96793.69;;;23.86;60.36
39555;BME280;25231;48.746;9.234;2022-07-23T06:06:10;96802.03;;;23.85;60.82
39555;BME280;25231;48.746;9.234;2022-07-23T06:08:36;96799.66;;;23.83;60.85
39555;BME280;25231;48.746;9.234;2022-07-23T06:11:01;96809.25;;;23.76;61.26
39555;BME280;25231;48.746;9.234;2022-07-23T06:13:26;96801.41;;;23.79;61.20
39555;BME280;25231;48.746;9.234;2022-07-23T06:15:52;96807.13;;;23.55;61.00
39555;BME280;25231;48.746;9.234;2022-07-23T06:18:17;96801.84;;;23.42;62.06
39555;BME280;25231;48.746;9.234;2022-07-23T06:20:43;96799.91;;;23.56;61.76
39555;BME280;25231;48.746;9.234;2022-07-23T06:23:08;96805.06;;;24.09;60.79
39555;BME280;25231;48.746;9.234;2022-07-23T06:25:33;96799.59;;;24.74;57.92
39555;BME280;25231;48.746;9.234;2022-07-23T06:27:59;96794.25;;;24.74;57.01
39555;BME280;25231;48.746;9.234;2022-07-23T06:30:25;96791.88;;;25.07;56.48
39555;BME280;25231;48.746;9.234;2022-07-23T06:32:50;96804.66;;;24.84;56.16
39555;BME280;25231;48.746;9.234;2022-07-23T06:35:16;96807.41;;;25.31;55.06
39555;BME280;25231;48.746;9.234;2022-07-23T06:37:41;96808.59;;;25.13;55.54
39555;BME280;25231;48.746;9.234;2022-07-23T06:40:07;96815.84;;;25.12;55.84
39555;BME280;25231;48.746;9.234;2022-07-23T06:42:33;96820.59;;;25.07;55.01
39555;BME280;25231;48.746;9.234;2022-07-23T06:44:58;96824.84;;;25.08;55.49
39555;BME280;25231;48.746;9.234;2022-07-23T06:47:23;96816.97;;;24.51;56.87
39555;BME280;25231;48.746;9.234;2022-07-23T06:49:49;96826.38;;;25.26;55.14
39555;BME280;25231;48.746;9.234;2022-07-23T06:52:14;96824.06;;;24.99;56.04
39555;BME280;25231;48.746;9.234;2022-07-23T06:54:40;96831.56;;;25.40;54.98
39555;BME280;25231;48.746;9.234;2022-07-23T06:57:05;96836.31;;;25.34;54.69
39555;BME280;25231;48.746;9.234;2022-07-23T06:59:31;96833.66;;;25.08;55.82
39555;BME280;25231;48.746;9.234;2022-07-23T07:01:56;96845.66;;;25.02;56.05
39555;BME280;25231;48.746;9.234;2022-07-23T07:04:23;96848.81;;;24.53;57.45
39555;BME280;25231;48.746;9.234;2022-07-23T07:06:48;96849.91;;;23.86;59.51
39555;BME280;25231;48.746;9.234;2022-07-23T07:09:13;96850.94;;;24.16;58.59
39555;BME280;25231;48.746;9.234;2022-07-23T07:11:39;96864.91;;;23.96;57.36
39555;BME280;25231;48.746;9.234;2022-07-23T07:14:04;96867.25;;;23.97;57.04
39555;BME280;25231;48.746;9.234;2022-07-23T07:16:30;96867.91;;;23.33;58.74
39555;BME280;25231;48.746;9.234;2022-07-23T07:18:55;96869.44;;;23.03;59.45
39555;BME280;25231;48.746;9.234;2022-07-23T07:21:20;96874.91;;;22.62;61.71
39555;BME280;25231;48.746;9.234;2022-07-23T07:23:46;96868.78;;;22.48;62.22
39555;BME280;25231;48.746;9.234;2022-07-23T07:26:11;96862.63;;;22.61;61.70
39555;BME280;25231;48.746;9.234;2022-07-23T07:28:36;96857.00;;;22.62;61.92
39555;BME280;25231;48.746;9.234;2022-07-23T07:31:02;96859.06;;;22.52;61.36
39555;BME280;25231;48.746;9.234;2022-07-23T07:33:27;96861.81;;;22.74;60.57
39555;BME280;25231;48.746;9.234;2022-07-23T07:35:53;96870.13;;;22.23;62.36
39555;BME280;25231;48.746;9.234;2022-07-23T07:38:19;96873.97;;;22.30;63.17
39555;BME280;25231;48.746;9.234;2022-07-23T07:40:44;96870.72;;;22.20;64.62
39555;BME280;25231;48.746;9.234;2022-07-23T07:43:09;96857.97;;;22.03;66.32
39555;BME280;25231;48.746;9.234;2022-07-23T07:45:35;96870.13;;;22.23;65.85
39555;BME280;25231;48.746;9.234;2022-07-23T07:48:00;96878.22;;;22.45;65.63
39555;BME280;25231;48.746;9.234;2022-07-23T07:50:26;96884.66;;;22.80;64.32
39555;BME280;25231;48.746;9.234;2022-07-23T07:52:51;96886.22;;;22.95;63.79
39555;BME280;25231;48.746;9.234;2022-07-23T07:55:17;96884.41;;;22.68;64.66
39555;BME280;25231;48.746;9.234;2022-07-23T07:57:42;96895.28;;;23.91;61.04
39555;BME280;25231;48.746;9.234;2022-07-23T08:00:09;96898.44;;;23.85;59.89
39555;BME280;25231;48.746;9.234;2022-07-23T08:02:47;96909.66;;;23.65;60.32
39555;BME280;25231;48.746;9.234;2022-07-23T08:05:14;96912.53;;;23.68;61.62
39555;BME280;25231;48.746;9.234;2022-07-23T08:07:40;96919.69;;;23.37;63.76
39555;BME280;25231;48.746;9.234;2022-07-23T08:10:07;96923.41;;;23.80;61.85
39555;BME280;25231;48.746;9.234;2022-07-23T08:12:50;96932.03;;;24.48;59.49
39555;BME280;25231;48.746;9.234;2022-07-23T08:15:17;96925.41;;;23.66;60.63
39555;BME280;25231;48.746;9.234;2022-07-23T08:17:44;96927.66;;;23.73;60.73
39555;BME280;25231;48.746;9.234;2022-07-23T08:20:11;96929.56;;;23.81;59.19
39555;BME280;25231;48.746;9.234;2022-07-23T08:22:52;96924.09;;;23.86;59.71
39555;BME280;25231;48.746;9.234;2022-07-23T08:27:51;96935.06;;;23.76;60.51
39555;BME280;25231;48.746;9.234;2022-07-23T08:30:17;96918.97;;;23.45;60.13
39555;BME280;25231;48.746;9.234;2022-07-23T08:35:30;96912.13;;;22.72;63.80
39555;BME280;25231;48.746;9.234;2022-07-23T08:37:56;96910.28;;;22.18;64.45
39555;BME280;25231;48.746;9.234;2022-07-23T08:40:25;96917.00;;;22.02;65.50
39555;BME280;25231;48.746;9.234;2022-07-23T08:42:51;96916.50;;;22.13;65.74
39555;BME280;25231;48.746;9.234;2022-07-23T08:45:19;96917.66;;;22.48;64.16
39555;BME280;25231;48.746;9.234;2022-07-23T08:47:48;96922.72;;;22.36;64.22
39555;BME280;25231;48.746;9.234;2022-07-23T08:50:14;96926.09;;;22.42;64.21
39555;BME280;25231;48.746;9.234;2022-07-23T08:52:40;96919.22;;;23.12;62.60
39555;BME280;25231;48.746;9.234;2022-07-23T08:55:06;96911.25;;;24.05;59.76
39555;BME280;25231;48.746;9.234;2022-07-23T08:57:32;96917.44;;;25.31;55.20
39555;BME280;25231;48.746;9.234;2022-07-23T08:59:57;96920.25;;;25.69;52.78
39555;BME280;25231;48.746;9.234;2022-07-23T09:02:23;96916.63;;;25.74;52.88
39555;BME280;25231;48.746;9.234;2022-07-23T09:04:48;96921.53;;;26.09;52.05
39555;BME280;25231;48.746;9.234;2022-07-23T09:07:13;96919.81;;;26.05;51.44
39555;BME280;25231;48.746;9.234;2022-07-23T09:09:39;96913.97;;;26.03;49.70
39555;BME280;25231;48.746;9.234;2022-07-23T09:12:09;96907.59;;;26.25;49.45
39555;BME280;25231;48.746;9.234;2022-07-23T09:14:45;96915.34;;;25.71;49.94
39555;BME280;25231;48.746;9.234;2022-07-23T09:17:17;96907.59;;;26.25;49.27
39555;BME280;25231;48.746;9.234;2022-07-23T09:19:44;96906.63;;;27.00;48.03
39555;BME280;25231;48.746;9.234;2022-07-23T09:22:24;96908.28;;;27.25;47.04
39555;BME280;25231;48.746;9.234;2022-07-23T09:25:11;96897.19;;;26.94;47.97
39555;BME280;25231;48.746;9.234;2022-07-23T09:27:58;96905.22;;;26.53;50.81
39555;BME280;25231;48.746;9.234;2022-07-23T09:30:29;96900.91;;;26.31;48.83
39555;BME280;25231;48.746;9.234;2022-07-23T09:33:15;96906.25;;;26.39;48.70
39555;BME280;25231;48.746;9.234;2022-07-23T09:35:55;96901.34;;;27.24;47.12
39555;BME280;25231;48.746;9.234;2022-07-23T09:38:24;96884.25;;;27.98;45.69
39555;BME280;25231;48.746;9.234;2022-07-23T09:41:09;96885.97;;;28.15;45.23
39555;BME280;25231;48.746;9.234;2022-07-23T09:43:35;96886.50;;;28.45;44.39
39555;BME280;25231;48.746;9.234;2022-07-23T09:46:21;96890.22;;;28.52;42.90
39555;BME280;25231;48.746;9.234;2022-07-23T09:48:48;96891.25;;;26.80;45.80
39555;BME280;25231;48.746;9.234;2022-07-23T09:51:14;96891.09;;;25.97;48.84
39555;BME280;25231;48.746;9.234;2022-07-23T09:53:45;96891.34;;;27.13;46.73
39555;BME280;25231;48.746;9.234;2022-07-23T09:56:13;96885.53;;;26.61;48.04
39555;BME280;25231;48.746;9.234;2022-07-23T09:58:40;96890.69;;;26.95;47.92
39555;BME280;25231;48.746;9.234;2022-07-23T10:01:12;96892.53;;;25.94;50.33
39555;BME280;25231;48.746;9.234;2022-07-23T10:03:39;96890.09;;;26.39;49.15
39555;BME280;25231;48.746;9.234;2022-07-23T10:06:05;96890.00;;;25.34;50.90
39555;BME280;25231;48.746;9.234;2022-07-23T10:08:33;96885.81;;;25.71;49.97
39555;BME280;25231;48.746;9.234;2022-07-23T10:11:00;96892.88;;;25.12;51.09
39555;BME280;25231;48.746;9.234;2022-07-23T10:13:26;96893.47;;;25.09;51.01
39555;BME280;25231;48.746;9.234;2022-07-23T10:16:10;96893.34;;;25.05;51.05
39555;BME280;25231;48.746;9.234;2022-07-23T10:18:35;96893.44;;;25.43;50.13
39555;BME280;25231;48.746;9.234;2022-07-23T10:21:05;96899.94;;;25.34;49.69
39555;BME280;25231;48.746;9.234;2022-07-23T10:24:01;96897.97;;;25.77;49.00
39555;BME280;25231;48.746;9.234;2022-07-23T10:26:35;96901.78;;;25.67;50.40
39555;BME280;25231;48.746;9.234;2022-07-23T10:29:11;96895.25;;;26.24;49.01
39555;BME280;25231;48.746;9.234;2022-07-23T10:31:45;96890.69;;;26.95;47.42
39555;BME280;25231;48.746;9.234;2022-07-23T10:34:24;96893.50;;;27.31;46.47
39555;BME280;25231;48.746;9.234;2022-07-23T10:36:55;96891.47;;;26.16;49.87
39555;BME280;25231;48.746;9.234;2022-07-23T10:39:28;96890.81;;;26.28;49.06
39555;BME280;25231;48.746;9.234;2022-07-23T10:42:08;96897.09;;;25.30;50.41
39555;BME280;25231;48.746;9.234;2022-07-23T10:44:41;96888.66;;;26.42;48.55
39555;BME280;25231;48.746;9.234;2022-07-23T10:47:09;96895.22;;;25.22;50.75
39555;BME280;25231;48.746;9.234;2022-07-23T10:49:50;96896.16;;;25.17;51.21
39555;BME280;25231;48.746;9.234;2022-07-23T10:52:16;96885.50;;;25.73;49.91
39555;BME280;25231;48.746;9.234;2022-07-23T10:54:51;96887.72;;;26.38;48.37
39555;BME280;25231;48.746;9.234;2022-07-23T10:57:25;96875.09;;;26.59;47.34
39555;BME280;25231;48.746;9.234;2022-07-23T11:02:28;96884.34;;;27.45;44.84
39555;BME280;25231;48.746;9.234;2022-07-23T11:04:59;96887.00;;;27.65;43.93
39555;BME280;25231;48.746;9.234;2022-07-23T11:07:25;96874.94;;;28.20;43.10
39555;BME280;25231;48.746;9.234;2022-07-23T11:09:50;96885.38;;;27.85;43.93
39555;BME280;25231;48.746;9.234;2022-07-23T11:25:08;96875.56;;;27.23;45.69
39555;BME280;25231;48.746;9.234;2022-07-23T11:27:44;96874.50;;;27.16;45.26
39555;BME280;25231;48.746;9.234;2022-07-23T11:35:44;96871.31;;;27.35;44.96
39555;BME280;25231;48.746;9.234;2022-07-23T11:40:38;96875.59;;;27.48;44.33
39555;BME280;25231;48.746;9.234;2022-07-23T11:43:06;96870.25;;;28.17;43.33
39555;BME280;25231;48.746;9.234;2022-07-23T11:45:40;96879.88;;;27.94;42.83
39555;BME280;25231;48.746;9.234;2022-07-23T11:48:08;96879.25;;;27.52;44.43
39555;BME280;25231;48.746;9.234;2022-07-23T11:50:35;96871.25;;;28.13;43.77
39555;BME280;25231;48.746;9.234;2022-07-23T11:53:01;96872.66;;;27.61;45.12
39555;BME280;25231;48.746;9.234;2022-07-23T11:55:27;96882.09;;;27.80;45.08
39555;BME280;25231;48.746;9.234;2022-07-23T11:57:54;96881.78;;;27.48;45.46
39555;BME280;25231;48.746;9.234;2022-07-23T12:00:24;96876.75;;;26.93;46.92
39555;BME280;25231;48.746;9.234;2022-07-23T12:02:52;96872.88;;;27.23;46.75
39555;BME280;25231;48.746;9.234;2022-07-23T12:05:21;96860.47;;;27.10;46.07
39555;BME280;25231;48.746;9.234;2022-07-23T12:07:49;96856.31;;;27.46;46.25
39555;BME280;25231;48.746;9.234;2022-07-23T12:10:29;96855.31;;;28.20;45.37
39555;BME280;25231;48.746;9.234;2022-07-23T12:12:58;96852.31;;;28.49;44.59
39555;BME280;25231;48.746;9.234;2022-07-23T12:15:25;96853.16;;;28.01;44.78
39555;BME280;25231;48.746;9.234;2022-07-23T12:17:52;96857.63;;;27.85;44.92
39555;BME280;25231;48.746;9.234;2022-07-23T12:20:29;96849.75;;;27.55;45.86
39555;BME280;25231;48.746;9.234;2022-07-23T12:22:57;96864.72;;;28.01;44.85
39555;BME280;25231;48.746;9.234;2022-07-23T12:25:26;96854.06;;;27.48;45.97
39555;BME280;25231;48.746;9.234;2022-07-23T12:28:09;96853.50;;;27.75;44.80
39555;BME280;25231;48.746;9.234;2022-07-23T12:30:41;96844.91;;;27.61;45.14
39555;BME280;25231;48.746;9.234;2022-07-23T12:33:09;96852.38;;;27.43;45.99
39555;BME280;25231;48.746;9.234;2022-07-23T12:35:44;96860.41;;;27.76;45.94
39555;BME280;25231;48.746;9.234;2022-07-23T12:38:13;96851.44;;;28.45;43.90
39555;BME280;25231;48.746;9.234;2022-07-23T12:43:19;96865.41;;;28.35;43.39
39555;BME280;25231;48.746;9.234;2022-07-23T12:45:53;96864.31;;;28.76;42.77
39555;BME280;25231;48.746;9.234;2022-07-23T12:48:29;96867.81;;;28.76;43.21
39555;BME280;25231;48.746;9.234;2022-07-23T12:51:00;96863.81;;;28.34;43.57
39555;BME280;25231;48.746;9.234;2022-07-23T12:56:02;96859.19;;;28.10;44.20
39555;BME280;25231;48.746;9.234;2022-07-23T12:58:43;96868.66;;;27.92;44.27
39555;BME280;25231;48.746;9.234;2022-07-23T13:01:21;96864.16;;;27.84;44.45
39555;BME280;25231;48.746;9.234;2022-07-23T13:04:06;96853.81;;;28.10;44.01
39555;BME280;25231;48.746;9.234;2022-07-23T13:06:38;96868.63;;;28.52;43.76
39555;BME280;25231;48.746;9.234;2022-07-23T13:09:06;96862.63;;;28.19;44.24
39555;BME280;25231;48.746;9.234;2022-07-23T13:11:31;96867.41;;;28.26;44.23
39555;BME280;25231;48.746;9.234;2022-07-23T13:13:58;96861.44;;;27.71;44.76
39555;BME280;25231;48.746;9.234;2022-07-23T13:16:26;96870.91;;;28.02;45.08
39555;BME280;25231;48.746;9.234;2022-07-23T13:18:51;96872.59;;;28.31;43.93
39555;BME280;25231;48.746;9.234;2022-07-23T13:21:17;96863.28;;;28.16;44.33
39555;BME280;25231;48.746;9.234;2022-07-23T13:23:42;96869.63;;;28.48;43.29
39555;BME280;25231;48.746;9.234;2022-07-23T13:26:08;96862.94;;;28.82;42.22
39555;BME280;25231;48.746;9.234;2022-07-23T13:28:33;96863.31;;;29.08;42.57
39555;BME280;25231;48.746;9.234;2022-07-23T13:30:59;96860.78;;;28.47;42.34
39555;BME280;25231;48.746;9.234;2022-07-23T13:33:25;96870.91;;;28.26;43.07
39555;BME280;25231;48.746;9.234;2022-07-23T13:35:51;96860.97;;;28.54;41.62